sensor_id;sensor_type;location;lat;lon;timestamp;P1;durP1;ratioP1;P2;durP2;ratioP2
7340;SDS011;6870;50.944;6.932;2023-12-14T00:01:24;4.77;;;3.00;;
7340;SDS011;6870;50.944;6.932;2023-12-14T00:03:52;6.43;;;3.63;;
7340;SDS011;6870;50.944;6.932;2023-12-14T00:06:20;6.10;;;4.00;;
7340;SDS011;6870;50.944;6.932;2023-12-14T00:08:48;9.33;;;4.10;;
7340;SDS011;6870;50.944;6.932;2023-12-14T00:11:17;6.37;;;3.83;;
7340;SDS011;6870;50.944;6.932;2023-12-14T00:13:45;4.37;;;2.90;;
7340;SDS011;6870;50.944;6.932;2023-12-14T00:16:14;5.50;;;3.13;;
7340;SDS011;6870;50.944;6.932;2023-12-14T00:18:42;4.40;;;3.10;;
7340;SDS011;6870;50.944;6.932;2023-12-14T00:21:10;5.63;;;3.97;;
7340;SDS011;6870;50.944;6.932;2023-12-14T00:23:38;6.43;;;3.67;;
7340;SDS011;6870;50.944;6.932;2023-12-14T00:26:06;8.60;;;2.90;;
7340;SDS011;6870;50.944;6.932;2023-12-14T00:28:34;10.23;;;3.70;;
7340;SDS011;6870;50.944;6.932;2023-12-14T00:31:03;5.60;;;4.07;;
7340;SDS011;6870;50.944;6.932;2023-12-14T00:33:32;11.97;;;3.97;;
7340;SDS011;6870;50.944;6.932;2023-12-14T00:36:00;4.20;;;3.00;;
7340;SDS011;6870;50.944;6.932;2023-12-14T00:38:29;6.40;;;3.40;;
7340;SDS011;6870;50.944;6.932;2023-12-14T00:40:57;4.83;;;3.90;;
7340;SDS011;6870;50.944;6.932;2023-12-14T00:43:25;6.67;;;3.27;;
7340;SDS011;6870;50.944;6.932;2023-12-14T00:45:53;4.60;;;3.60;;
7340;SDS011;6870;50.944;6.932;2023-12-14T00:48:21;4.73;;;3.00;;
7340;SDS011;6870;50.944;6.932;2023-12-14T00:50:50;5.50;;;4.07;;
7340;SDS011;6870;50.944;6.932;2023-12-14T00:53:18;4.13;;;3.00;;
7340;SDS011;6870;50.944;6.932;2023-12-14T00:55:46;4.50;;;2.87;;
7340;SDS011;6870;50.944;6.932;2023-12-14T00:58:14;7.40;;;2.80;;
7340;SDS011;6870;50.944;6.932;2023-12-14T01:00:42;8.17;;;3.70;;
7340;SDS011;6870;50.944;6.932;2023-12-14T01:03:11;3.77;;;3.17;;
7340;SDS011;6870;50.944;6.932;2023-12-14T01:05:39;4.53;;;2.50;;
7340;SDS011;6870;50.944;6.932;2023-12-14T01:08:08;7.03;;;3.60;;
7340;SDS011;6870;50.944;6.932;2023-12-14T01:10:36;5.10;;;2.97;;
7340;SDS011;6870;50.944;6.932;2023-12-14T01:13:04;6.90;;;3.90;;
7340;SDS011;6870;50.944;6.932;2023-12-14T01:15:34;5.90;;;3.73;;
7340;SDS011;6870;50.944;6.932;2023-12-14T01:18:02;4.37;;;2.53;;
7340;SDS011;6870;50.944;6.932;2023-12-14T01:20:30;5.90;;;3.30;;
7340;SDS011;6870;50.944;6.932;2023-12-14T01:22:58;6.03;;;3.70;;
7340;SDS011;6870;50.944;6.932;2023-12-14T01:25:27;5.03;;;2.67;;
7340;SDS011;6870;50.944;6.932;2023-12-14T01:27:56;6.60;;;3.10;;
7340;SDS011;6870;50.944;6.932;2023-12-14T01:30:24;4.23;;;3.17;;
7340;SDS011;6870;50.944;6.932;2023-12-14T01:32:52;9.80;;;3.27;;
7340;SDS011;6870;50.944;6.932;2023-12-14T01:35:20;5.47;;;3.07;;
7340;SDS011;6870;50.944;6.932;2023-12-14T01:37:48;7.10;;;3.23;;
7340;SDS011;6870;50.944;6.932;2023-12-14T01:40:18;4.70;;;3.50;;
7340;SDS011;6870;50.944;6.932;2023-12-14T01:42:48;5.20;;;2.87;;
7340;SDS011;6870;50.944;6.932;2023-12-14T01:45:16;4.77;;;3.20;;
7340;SDS011;6870;50.944;6.932;2023-12-14T01:47:44;3.87;;;3.10;;
7340;SDS011;6870;50.944;6.932;2023-12-14T01:50:12;5.03;;;3.30;;
7340;SDS011;6870;50.944;6.932;2023-12-14T01:52:41;4.23;;;3.00;;
7340;SDS011;6870;50.944;6.932;2023-12-14T01:55:09;7.90;;;3.00;;
7340;SDS011;6870;50.944;6.932;2023-12-14T01:57:37;6.23;;;2.70;;
7340;SDS011;6870;50.944;6.932;2023-12-14T02:00:07;4.80;;;2.67;;
7340;SDS011;6870;50.944;6.932;2023-12-14T02:02:46;4.40;;;2.70;;
7340;SDS011;6870;50.944;6.932;2023-12-14T02:05:15;4.30;;;2.90;;
7340;SDS011;6870;50.944;6.932;2023-12-14T02:07:43;3.97;;;2.47;;
7340;SDS011;6870;50.944;6.932;2023-12-14T02:10:12;4.57;;;3.90;;
7340;SDS011;6870;50.944;6.932;2023-12-14T02:12:40;4.00;;;2.70;;
7340;SDS011;6870;50.944;6.932;2023-12-14T02:15:09;12.83;;;2.73;;
7340;SDS011;6870;50.944;6.932;2023-12-14T02:17:37;4.40;;;2.90;;
7340;SDS011;6870;50.944;6.932;2023-12-14T02:20:06;4.40;;;2.13;;
7340;SDS011;6870;50.944;6.932;2023-12-14T02:22:47;5.10;;;2.73;;
7340;SDS011;6870;50.944;6.932;2023-12-14T02:25:16;4.43;;;2.60;;
7340;SDS011;6870;50.944;6.932;2023-12-14T02:27:44;3.20;;;2.40;;
7340;SDS011;6870;50.944;6.932;2023-12-14T02:30:13;6.33;;;2.83;;
7340;SDS011;6870;50.944;6.932;2023-12-14T02:32:42;3.67;;;2.80;;
7340;SDS011;6870;50.944;6.932;2023-12-14T02:35:10;4.07;;;2.67;;
7340;SDS011;6870;50.944;6.932;2023-12-14T02:37:39;8.00;;;2.87;;
7340;SDS011;6870;50.944;6.932;2023-12-14T02:40:08;4.27;;;2.80;;
7340;SDS011;6870;50.944;6.932;2023-12-14T02:42:38;4.33;;;2.93;;
7340;SDS011;6870;50.944;6.932;2023-12-14T02:45:07;5.40;;;2.73;;
7340;SDS011;6870;50.944;6.932;2023-12-14T02:47:36;5.90;;;3.37;;
7340;SDS011;6870;50.944;6.932;2023-12-14T02:50:05;5.90;;;3.07;;
7340;SDS011;6870;50.944;6.932;2023-12-14T02:52:34;5.30;;;2.80;;
7340;SDS011;6870;50.944;6.932;2023-12-14T02:55:04;3.67;;;2.47;;
7340;SDS011;6870;50.944;6.932;2023-12-14T02:57:34;2.83;;;2.10;;
7340;SDS011;6870;50.944;6.932;2023-12-14T03:00:02;3.10;;;2.40;;
7340;SDS011;6870;50.944;6.932;2023-12-14T03:02:37;3.60;;;2.77;;
7340;SDS011;6870;50.944;6.932;2023-12-14T03:05:05;2.90;;;2.60;;
7340;SDS011;6870;50.944;6.932;2023-12-14T03:07:36;5.30;;;2.97;;
7340;SDS011;6870;50.944;6.932;2023-12-14T03:10:06;4.53;;;3.07;;
7340;SDS011;6870;50.944;6.932;2023-12-14T03:12:35;3.10;;;2.33;;
7340;SDS011;6870;50.944;6.932;2023-12-14T03:15:04;5.47;;;3.20;;
7340;SDS011;6870;50.944;6.932;2023-12-14T03:17:44;3.83;;;2.60;;
7340;SDS011;6870;50.944;6.932;2023-12-14T03:20:15;4.77;;;2.87;;
7340;SDS011;6870;50.944;6.932;2023-12-14T03:22:43;3.47;;;2.83;;
7340;SDS011;6870;50.944;6.932;2023-12-14T03:25:13;9.20;;;2.87;;
7340;SDS011;6870;50.944;6.932;2023-12-14T03:27:41;9.90;;;2.97;;
7340;SDS011;6870;50.944;6.932;2023-12-14T03:30:09;7.13;;;2.63;;
7340;SDS011;6870;50.944;6.932;2023-12-14T03:32:38;10.00;;;2.90;;
7340;SDS011;6870;50.944;6.932;2023-12-14T03:35:07;7.67;;;2.60;;
7340;SDS011;6870;50.944;6.932;2023-12-14T03:37:35;10.57;;;2.80;;
7340;SDS011;6870;50.944;6.932;2023-12-14T03:40:04;7.20;;;3.00;;
7340;SDS011;6870;50.944;6.932;2023-12-14T03:42:35;6.00;;;3.13;;
7340;SDS011;6870;50.944;6.932;2023-12-14T03:45:03;5.40;;;2.87;;
7340;SDS011;6870;50.944;6.932;2023-12-14T03:47:33;6.03;;;2.50;;
7340;SDS011;6870;50.944;6.932;2023-12-14T03:50:01;16.93;;;3.27;;
7340;SDS011;6870;50.944;6.932;2023-12-14T03:52:30;5.23;;;2.63;;
7340;SDS011;6870;50.944;6.932;2023-12-14T03:54:59;13.03;;;2.83;;
7340;SDS011;6870;50.944;6.932;2023-12-14T03:57:27;12.13;;;3.80;;
7340;SDS011;6870;50.944;6.932;2023-12-14T03:59:56;13.90;;;3.10;;
7340;SDS011;6870;50.944;6.932;2023-12-14T04:02:24;4.20;;;2.53;;
7340;SDS011;6870;50.944;6.932;2023-12-14T04:04:52;7.20;;;2.80;;
7340;SDS011;6870;50.944;6.932;2023-12-14T04:07:20;5.10;;;2.30;;
7340;SDS011;6870;50.944;6.932;2023-12-14T04:09:48;7.17;;;3.30;;
7340;SDS011;6870;50.944;6.932;2023-12-14T04:12:16;5.00;;;2.70;;
7340;SDS011;6870;50.944;6.932;2023-12-14T04:14:44;11.53;;;2.67;;
7340;SDS011;6870;50.944;6.932;2023-12-14T04:17:14;6.67;;;2.67;;
7340;SDS011;6870;50.944;6.932;2023-12-14T04:19:43;8.03;;;2.77;;
7340;SDS011;6870;50.944;6.932;2023-12-14T04:22:11;5.53;;;2.70;;
7340;SDS011;6870;50.944;6.932;2023-12-14T04:24:39;4.57;;;2.47;;
7340;SDS011;6870;50.944;6.932;2023-12-14T04:27:07;4.07;;;2.53;;
7340;SDS011;6870;50.944;6.932;2023-12-14T04:29:35;9.23;;;3.17;;
7340;SDS011;6870;50.944;6.932;2023-12-14T04:32:03;6.13;;;2.40;;
7340;SDS011;6870;50.944;6.932;2023-12-14T04:34:34;4.77;;;2.67;;
7340;SDS011;6870;50.944;6.932;2023-12-14T04:37:02;5.30;;;3.03;;
7340;SDS011;6870;50.944;6.932;2023-12-14T04:39:30;6.67;;;2.83;;
7340;SDS011;6870;50.944;6.932;2023-12-14T04:41:58;4.73;;;2.33;;
7340;SDS011;6870;50.944;6.932;2023-12-14T04:44:26;5.20;;;2.63;;
7340;SDS011;6870;50.944;6.932;2023-12-14T04:46:54;4.13;;;2.60;;
7340;SDS011;6870;50.944;6.932;2023-12-14T04:49:22;4.87;;;2.30;;
7340;SDS011;6870;50.944;6.932;2023-12-14T04:51:52;6.23;;;2.40;;
7340;SDS011;6870;50.944;6.932;2023-12-14T04:54:20;4.50;;;2.40;;
7340;SDS011;6870;50.944;6.932;2023-12-14T04:56:48;4.33;;;3.07;;
7340;SDS011;6870;50.944;6.932;2023-12-14T04:59:16;7.23;;;2.70;;
7340;SDS011;6870;50.944;6.932;2023-12-14T05:01:44;8.53;;;2.60;;
7340;SDS011;6870;50.944;6.932;2023-12-14T05:04:12;4.90;;;2.30;;
7340;SDS011;6870;50.944;6.932;2023-12-14T05:06:40;6.43;;;2.37;;
7340;SDS011;6870;50.944;6.932;2023-12-14T05:09:10;3.30;;;2.33;;
7340;SDS011;6870;50.944;6.932;2023-12-14T05:11:39;5.67;;;2.77;;
7340;SDS011;6870;50.944;6.932;2023-12-14T05:14:07;4.87;;;2.30;;
7340;SDS011;6870;50.944;6.932;2023-12-14T05:16:35;2.90;;;1.87;;
7340;SDS011;6870;50.944;6.932;2023-12-14T05:19:03;4.93;;;2.90;;
7340;SDS011;6870;50.944;6.932;2023-12-14T05:21:32;5.00;;;2.00;;
7340;SDS011;6870;50.944;6.932;2023-12-14T05:24:00;6.53;;;2.70;;
7340;SDS011;6870;50.944;6.932;2023-12-14T05:26:30;6.60;;;2.90;;
7340;SDS011;6870;50.944;6.932;2023-12-14T05:28:58;4.37;;;2.37;;
7340;SDS011;6870;50.944;6.932;2023-12-14T05:31:26;5.73;;;2.40;;
7340;SDS011;6870;50.944;6.932;2023-12-14T05:33:54;4.13;;;2.57;;
7340;SDS011;6870;50.944;6.932;2023-12-14T05:36:23;3.90;;;2.27;;
7340;SDS011;6870;50.944;6.932;2023-12-14T05:38:51;3.53;;;2.30;;
7340;SDS011;6870;50.944;6.932;2023-12-14T05:41:19;5.63;;;2.30;;
7340;SDS011;6870;50.944;6.932;2023-12-14T05:43:48;4.63;;;2.20;;
7340;SDS011;6870;50.944;6.932;2023-12-14T05:46:20;3.60;;;2.10;;
7340;SDS011;6870;50.944;6.932;2023-12-14T05:48:49;3.10;;;2.00;;
7340;SDS011;6870;50.944;6.932;2023-12-14T05:51:27;8.63;;;2.87;;
7340;SDS011;6870;50.944;6.932;2023-12-14T05:53:57;7.60;;;2.70;;
7340;SDS011;6870;50.944;6.932;2023-12-14T05:56:25;3.50;;;2.07;;
7340;SDS011;6870;50.944;6.932;2023-12-14T05:58:55;6.90;;;2.27;;
7340;SDS011;6870;50.944;6.932;2023-12-14T06:01:23;2.67;;;2.10;;
7340;SDS011;6870;50.944;6.932;2023-12-14T06:03:52;3.73;;;2.10;;
7340;SDS011;6870;50.944;6.932;2023-12-14T06:06:20;6.20;;;2.57;;
7340;SDS011;6870;50.944;6.932;2023-12-14T06:08:48;3.47;;;2.50;;
7340;SDS011;6870;50.944;6.932;2023-12-14T06:11:16;4.13;;;2.20;;
7340;SDS011;6870;50.944;6.932;2023-12-14T06:13:44;3.23;;;2.30;;
7340;SDS011;6870;50.944;6.932;2023-12-14T06:16:13;2.63;;;1.87;;
7340;SDS011;6870;50.944;6.932;2023-12-14T06:18:41;5.40;;;2.93;;
7340;SDS011;6870;50.944;6.932;2023-12-14T06:21:11;9.23;;;2.67;;
7340;SDS011;6870;50.944;6.932;2023-12-14T06:23:39;5.43;;;2.20;;
7340;SDS011;6870;50.944;6.932;2023-12-14T06:26:07;5.70;;;2.30;;
7340;SDS011;6870;50.944;6.932;2023-12-14T06:28:36;6.90;;;2.70;;
7340;SDS011;6870;50.944;6.932;2023-12-14T06:31:04;5.57;;;2.40;;
7340;SDS011;6870;50.944;6.932;2023-12-14T06:33:33;6.57;;;2.50;;
7340;SDS011;6870;50.944;6.932;2023-12-14T06:36:02;4.90;;;2.87;;
7340;SDS011;6870;50.944;6.932;2023-12-14T06:38:31;10.23;;;3.77;;
7340;SDS011;6870;50.944;6.932;2023-12-14T06:41:00;8.97;;;4.60;;
7340;SDS011;6870;50.944;6.932;2023-12-14T06:43:29;12.13;;;5.63;;
7340;SDS011;6870;50.944;6.932;2023-12-14T06:45:57;18.47;;;7.80;;
7340;SDS011;6870;50.944;6.932;2023-12-14T06:48:25;10.60;;;8.20;;
7340;SDS011;6870;50.944;6.932;2023-12-14T06:50:55;9.10;;;8.20;;
7340;SDS011;6870;50.944;6.932;2023-12-14T06:53:23;13.40;;;8.50;;
7340;SDS011;6870;50.944;6.932;2023-12-14T06:55:51;11.20;;;9.10;;
7340;SDS011;6870;50.944;6.932;2023-12-14T06:58:19;17.20;;;10.50;;
7340;SDS011;6870;50.944;6.932;2023-12-14T07:00:47;12.53;;;9.80;;
7340;SDS011;6870;50.944;6.932;2023-12-14T07:03:16;12.57;;;9.80;;
7340;SDS011;6870;50.944;6.932;2023-12-14T07:05:44;13.80;;;10.50;;
7340;SDS011;6870;50.944;6.932;2023-12-14T07:08:14;12.97;;;10.07;;
7340;SDS011;6870;50.944;6.932;2023-12-14T07:10:42;11.90;;;10.60;;
7340;SDS011;6870;50.944;6.932;2023-12-14T07:13:10;13.60;;;10.50;;
7340;SDS011;6870;50.944;6.932;2023-12-14T07:15:38;12.00;;;10.03;;
7340;SDS011;6870;50.944;6.932;2023-12-14T07:18:06;13.80;;;10.83;;
7340;SDS011;6870;50.944;6.932;2023-12-14T07:20:33;12.67;;;11.30;;
7340;SDS011;6870;50.944;6.932;2023-12-14T07:23:01;14.53;;;12.40;;
7340;SDS011;6870;50.944;6.932;2023-12-14T07:25:31;15.83;;;12.63;;
7340;SDS011;6870;50.944;6.932;2023-12-14T07:27:59;15.00;;;11.77;;
7340;SDS011;6870;50.944;6.932;2023-12-14T07:30:27;14.73;;;11.40;;
7340;SDS011;6870;50.944;6.932;2023-12-14T07:32:55;16.00;;;12.17;;
7340;SDS011;6870;50.944;6.932;2023-12-14T07:35:23;14.40;;;12.30;;
7340;SDS011;6870;50.944;6.932;2023-12-14T07:37:51;17.30;;;13.40;;
7340;SDS011;6870;50.944;6.932;2023-12-14T07:40:19;14.77;;;12.30;;
7340;SDS011;6870;50.944;6.932;2023-12-14T07:42:49;15.57;;;12.43;;
7340;SDS011;6870;50.944;6.932;2023-12-14T07:45:17;15.60;;;12.00;;
7340;SDS011;6870;50.944;6.932;2023-12-14T07:47:45;16.30;;;13.57;;
7340;SDS011;6870;50.944;6.932;2023-12-14T07:50:14;14.80;;;12.67;;
7340;SDS011;6870;50.944;6.932;2023-12-14T07:52:42;17.33;;;12.83;;
7340;SDS011;6870;50.944;6.932;2023-12-14T07:55:10;16.47;;;12.23;;
7340;SDS011;6870;50.944;6.932;2023-12-14T07:57:41;13.37;;;11.90;;
7340;SDS011;6870;50.944;6.932;2023-12-14T08:00:11;14.50;;;11.60;;
7340;SDS011;6870;50.944;6.932;2023-12-14T08:02:40;16.30;;;11.63;;
7340;SDS011;6870;50.944;6.932;2023-12-14T08:05:09;13.77;;;11.17;;
7340;SDS011;6870;50.944;6.932;2023-12-14T08:07:37;11.60;;;9.87;;
7340;SDS011;6870;50.944;6.932;2023-12-14T08:10:05;11.47;;;9.33;;
7340;SDS011;6870;50.944;6.932;2023-12-14T08:12:35;11.40;;;8.67;;
7340;SDS011;6870;50.944;6.932;2023-12-14T08:15:04;10.27;;;8.83;;
7340;SDS011;6870;50.944;6.932;2023-12-14T08:17:35;8.97;;;8.07;;
7340;SDS011;6870;50.944;6.932;2023-12-14T08:20:04;12.67;;;7.90;;
7340;SDS011;6870;50.944;6.932;2023-12-14T08:22:35;8.57;;;7.43;;
7340;SDS011;6870;50.944;6.932;2023-12-14T08:25:04;10.30;;;8.53;;
7340;SDS011;6870;50.944;6.932;2023-12-14T08:27:32;10.40;;;8.33;;
7340;SDS011;6870;50.944;6.932;2023-12-14T08:30:00;9.77;;;7.57;;
7340;SDS011;6870;50.944;6.932;2023-12-14T08:32:28;8.50;;;7.50;;
7340;SDS011;6870;50.944;6.932;2023-12-14T08:34:58;11.10;;;7.93;;
7340;SDS011;6870;50.944;6.932;2023-12-14T08:37:26;9.80;;;8.40;;
7340;SDS011;6870;50.944;6.932;2023-12-14T08:39:54;10.33;;;7.23;;
7340;SDS011;6870;50.944;6.932;2023-12-14T08:42:22;9.20;;;7.47;;
7340;SDS011;6870;50.944;6.932;2023-12-14T08:44:50;9.70;;;7.80;;
7340;SDS011;6870;50.944;6.932;2023-12-14T08:47:18;8.97;;;6.70;;
7340;SDS011;6870;50.944;6.932;2023-12-14T08:49:47;7.83;;;7.00;;
7340;SDS011;6870;50.944;6.932;2023-12-14T08:52:16;12.07;;;8.13;;
7340;SDS011;6870;50.944;6.932;2023-12-14T08:54:45;10.00;;;8.00;;
7340;SDS011;6870;50.944;6.932;2023-12-14T08:57:13;8.53;;;7.63;;
7340;SDS011;6870;50.944;6.932;2023-12-14T08:59:41;8.70;;;7.77;;
7340;SDS011;6870;50.944;6.932;2023-12-14T09:02:10;9.30;;;7.20;;
7340;SDS011;6870;50.944;6.932;2023-12-14T09:04:38;10.30;;;7.87;;
7340;SDS011;6870;50.944;6.932;2023-12-14T09:07:06;8.33;;;7.47;;
7340;SDS011;6870;50.944;6.932;2023-12-14T09:09:36;9.27;;;8.27;;
7340;SDS011;6870;50.944;6.932;2023-12-14T09:12:05;10.27;;;8.00;;
7340;SDS011;6870;50.944;6.932;2023-12-14T09:14:33;8.77;;;7.87;;
7340;SDS011;6870;50.944;6.932;2023-12-14T09:17:02;8.50;;;7.30;;
7340;SDS011;6870;50.944;6.932;2023-12-14T09:19:30;7.57;;;6.33;;
7340;SDS011;6870;50.944;6.932;2023-12-14T09:21:58;8.97;;;7.60;;
7340;SDS011;6870;50.944;6.932;2023-12-14T09:24:27;7.70;;;7.00;;
7340;SDS011;6870;50.944;6.932;2023-12-14T09:26:56;8.20;;;6.80;;
7340;SDS011;6870;50.944;6.932;2023-12-14T09:29:24;7.80;;;6.60;;
7340;SDS011;6870;50.944;6.932;2023-12-14T09:31:52;6.70;;;5.97;;
7340;SDS011;6870;50.944;6.932;2023-12-14T09:34:21;8.70;;;6.00;;
7340;SDS011;6870;50.944;6.932;2023-12-14T09:36:49;5.97;;;5.03;;
7340;SDS011;6870;50.944;6.932;2023-12-14T09:39:19;5.97;;;5.37;;
7340;SDS011;6870;50.944;6.932;2023-12-14T09:41:49;6.93;;;5.70;;
7340;SDS011;6870;50.944;6.932;2023-12-14T09:44:19;6.20;;;5.60;;
7340;SDS011;6870;50.944;6.932;2023-12-14T09:46:47;5.93;;;5.33;;
7340;SDS011;6870;50.944;6.932;2023-12-14T09:49:16;6.13;;;5.47;;
7340;SDS011;6870;50.944;6.932;2023-12-14T09:51:46;7.40;;;5.77;;
7340;SDS011;6870;50.944;6.932;2023-12-14T09:54:14;6.50;;;4.83;;
7340;SDS011;6870;50.944;6.932;2023-12-14T09:56:46;5.63;;;4.60;;
7340;SDS011;6870;50.944;6.932;2023-12-14T09:59:14;5.87;;;5.00;;
7340;SDS011;6870;50.944;6.932;2023-12-14T10:01:44;5.03;;;4.53;;
7340;SDS011;6870;50.944;6.932;2023-12-14T10:04:13;6.63;;;5.43;;
7340;SDS011;6870;50.944;6.932;2023-12-14T10:06:44;7.00;;;5.63;;
7340;SDS011;6870;50.944;6.932;2023-12-14T10:09:14;9.23;;;5.60;;
7340;SDS011;6870;50.944;6.932;2023-12-14T10:11:44;6.60;;;5.70;;
7340;SDS011;6870;50.944;6.932;2023-12-14T10:14:19;6.00;;;5.40;;
7340;SDS011;6870;50.944;6.932;2023-12-14T10:16:51;6.57;;;5.70;;
7340;SDS011;6870;50.944;6.932;2023-12-14T10:19:29;11.33;;;5.20;;
7340;SDS011;6870;50.944;6.932;2023-12-14T10:21:57;6.03;;;5.30;;
7340;SDS011;6870;50.944;6.932;2023-12-14T10:24:28;5.53;;;5.00;;
7340;SDS011;6870;50.944;6.932;2023-12-14T10:27:00;5.60;;;4.43;;
7340;SDS011;6870;50.944;6.932;2023-12-14T10:29:34;6.57;;;5.30;;
7340;SDS011;6870;50.944;6.932;2023-12-14T10:32:06;9.90;;;4.80;;
7340;SDS011;6870;50.944;6.932;2023-12-14T10:34:36;6.07;;;4.40;;
7340;SDS011;6870;50.944;6.932;2023-12-14T10:37:05;5.57;;;5.07;;
7340;SDS011;6870;50.944;6.932;2023-12-14T10:39:34;6.73;;;4.43;;
7340;SDS011;6870;50.944;6.932;2023-12-14T10:42:03;5.17;;;3.87;;
7340;SDS011;6870;50.944;6.932;2023-12-14T10:44:44;7.20;;;5.77;;
7340;SDS011;6870;50.944;6.932;2023-12-14T10:47:37;6.00;;;4.97;;
7340;SDS011;6870;50.944;6.932;2023-12-14T10:50:13;4.80;;;4.30;;
7340;SDS011;6870;50.944;6.932;2023-12-14T10:52:42;5.80;;;5.20;;
7340;SDS011;6870;50.944;6.932;2023-12-14T10:55:13;5.67;;;4.17;;
7340;SDS011;6870;50.944;6.932;2023-12-14T10:57:54;4.97;;;4.40;;
7340;SDS011;6870;50.944;6.932;2023-12-14T11:00:22;8.10;;;4.40;;
7340;SDS011;6870;50.944;6.932;2023-12-14T11:02:51;5.10;;;4.20;;
7340;SDS011;6870;50.944;6.932;2023-12-14T11:05:21;5.30;;;4.80;;
7340;SDS011;6870;50.944;6.932;2023-12-14T11:07:56;6.13;;;5.20;;
7340;SDS011;6870;50.944;6.932;2023-12-14T11:10:35;5.10;;;4.60;;
7340;SDS011;6870;50.944;6.932;2023-12-14T11:13:06;6.20;;;4.43;;
7340;SDS011;6870;50.944;6.932;2023-12-14T11:15:37;5.57;;;4.20;;
7340;SDS011;6870;50.944;6.932;2023-12-14T11:18:27;4.73;;;4.03;;
7340;SDS011;6870;50.944;6.932;2023-12-14T11:20:56;5.07;;;4.27;;
7340;SDS011;6870;50.944;6.932;2023-12-14T11:23:28;4.67;;;4.20;;
7340;SDS011;6870;50.944;6.932;2023-12-14T11:26:06;4.47;;;4.07;;
7340;SDS011;6870;50.944;6.932;2023-12-14T11:28:37;5.40;;;4.70;;
7340;SDS011;6870;50.944;6.932;2023-12-14T11:31:09;5.47;;;4.50;;
7340;SDS011;6870;50.944;6.932;2023-12-14T11:33:40;5.60;;;3.90;;
7340;SDS011;6870;50.944;6.932;2023-12-14T11:36:11;4.63;;;4.23;;
7340;SDS011;6870;50.944;6.932;2023-12-14T11:38:40;5.10;;;4.57;;
7340;SDS011;6870;50.944;6.932;2023-12-14T11:41:09;7.10;;;5.03;;
7340;SDS011;6870;50.944;6.932;2023-12-14T11:43:41;5.30;;;4.70;;
7340;SDS011;6870;50.944;6.932;2023-12-14T11:46:11;4.97;;;4.57;;
7340;SDS011;6870;50.944;6.932;2023-12-14T11:48:43;4.63;;;4.10;;
7340;SDS011;6870;50.944;6.932;2023-12-14T11:51:12;6.37;;;5.00;;
7340;SDS011;6870;50.944;6.932;2023-12-14T11:53:40;3.90;;;3.60;;
7340;SDS011;6870;50.944;6.932;2023-12-14T11:56:08;4.73;;;3.90;;
7340;SDS011;6870;50.944;6.932;2023-12-14T11:58:39;5.20;;;4.70;;
7340;SDS011;6870;50.944;6.932;2023-12-14T12:01:12;5.03;;;4.53;;
7340;SDS011;6870;50.944;6.932;2023-12-14T12:03:45;6.93;;;4.47;;
7340;SDS011;6870;50.944;6.932;2023-12-14T12:06:20;4.87;;;4.30;;
7340;SDS011;6870;50.944;6.932;2023-12-14T12:08:50;4.80;;;4.40;;
7340;SDS011;6870;50.944;6.932;2023-12-14T12:11:19;4.70;;;4.30;;
7340;SDS011;6870;50.944;6.932;2023-12-14T12:13:52;5.80;;;4.20;;
7340;SDS011;6870;50.944;6.932;2023-12-14T12:16:22;5.60;;;4.73;;
7340;SDS011;6870;50.944;6.932;2023-12-14T12:18:52;5.10;;;4.60;;
7340;SDS011;6870;50.944;6.932;2023-12-14T12:21:20;6.50;;;3.73;;
7340;SDS011;6870;50.944;6.932;2023-12-14T12:23:48;4.67;;;4.17;;
7340;SDS011;6870;50.944;6.932;2023-12-14T12:26:16;5.33;;;4.70;;
7340;SDS011;6870;50.944;6.932;2023-12-14T12:28:45;5.40;;;4.77;;
7340;SDS011;6870;50.944;6.932;2023-12-14T12:31:14;4.83;;;4.30;;
7340;SDS011;6870;50.944;6.932;2023-12-14T12:33:43;4.53;;;4.13;;
7340;SDS011;6870;50.944;6.932;2023-12-14T12:36:12;4.47;;;4.07;;
7340;SDS011;6870;50.944;6.932;2023-12-14T12:38:40;4.63;;;3.90;;
7340;SDS011;6870;50.944;6.932;2023-12-14T12:41:08;4.60;;;4.20;;
7340;SDS011;6870;50.944;6.932;2023-12-14T12:43:36;4.17;;;3.77;;
7340;SDS011;6870;50.944;6.932;2023-12-14T12:46:04;4.73;;;4.10;;
7340;SDS011;6870;50.944;6.932;2023-12-14T12:48:33;7.67;;;4.60;;
7340;SDS011;6870;50.944;6.932;2023-12-14T12:51:02;5.97;;;5.03;;
7340;SDS011;6870;50.944;6.932;2023-12-14T12:53:32;8.40;;;5.90;;
7340;SDS011;6870;50.944;6.932;2023-12-14T12:56:00;5.60;;;5.00;;
7340;SDS011;6870;50.944;6.932;2023-12-14T12:58:29;9.00;;;4.23;;
7340;SDS011;6870;50.944;6.932;2023-12-14T13:00:57;10.67;;;5.67;;
7340;SDS011;6870;50.944;6.932;2023-12-14T13:03:26;5.67;;;5.03;;
7340;SDS011;6870;50.944;6.932;2023-12-14T13:05:54;5.70;;;4.83;;
7340;SDS011;6870;50.944;6.932;2023-12-14T13:08:22;13.60;;;4.90;;
7340;SDS011;6870;50.944;6.932;2023-12-14T13:10:51;7.47;;;5.43;;
7340;SDS011;6870;50.944;6.932;2023-12-14T13:13:21;7.40;;;5.63;;
7340;SDS011;6870;50.944;6.932;2023-12-14T13:15:50;9.47;;;5.00;;
7340;SDS011;6870;50.944;6.932;2023-12-14T13:18:18;5.00;;;4.47;;
7340;SDS011;6870;50.944;6.932;2023-12-14T13:20:47;7.60;;;5.27;;
7340;SDS011;6870;50.944;6.932;2023-12-14T13:23:15;5.40;;;4.17;;
7340;SDS011;6870;50.944;6.932;2023-12-14T13:25:43;7.60;;;4.73;;
7340;SDS011;6870;50.944;6.932;2023-12-14T13:28:13;7.57;;;4.53;;
7340;SDS011;6870;50.944;6.932;2023-12-14T13:30:43;7.60;;;4.67;;
7340;SDS011;6870;50.944;6.932;2023-12-14T13:33:12;6.50;;;5.00;;
7340;SDS011;6870;50.944;6.932;2023-12-14T13:35:40;7.27;;;4.57;;
7340;SDS011;6870;50.944;6.932;2023-12-14T13:38:09;7.63;;;4.53;;
7340;SDS011;6870;50.944;6.932;2023-12-14T13:40:37;7.03;;;4.50;;
7340;SDS011;6870;50.944;6.932;2023-12-14T13:43:05;9.20;;;5.03;;
7340;SDS011;6870;50.944;6.932;2023-12-14T13:45:38;6.70;;;4.63;;
7340;SDS011;6870;50.944;6.932;2023-12-14T13:48:08;6.40;;;4.53;;
7340;SDS011;6870;50.944;6.932;2023-12-14T13:50:36;5.83;;;4.20;;
7340;SDS011;6870;50.944;6.932;2023-12-14T13:53:04;5.33;;;3.43;;
7340;SDS011;6870;50.944;6.932;2023-12-14T13:55:33;4.70;;;4.30;;
7340;SDS011;6870;50.944;6.932;2023-12-14T13:58:02;7.30;;;4.10;;
7340;SDS011;6870;50.944;6.932;2023-12-14T14:00:30;4.70;;;3.90;;
7340;SDS011;6870;50.944;6.932;2023-12-14T14:03:00;5.10;;;4.17;;
7340;SDS011;6870;50.944;6.932;2023-12-14T14:05:29;8.10;;;4.43;;
7340;SDS011;6870;50.944;6.932;2023-12-14T14:07:58;4.87;;;4.20;;
7340;SDS011;6870;50.944;6.932;2023-12-14T14:10:26;4.50;;;3.83;;
7340;SDS011;6870;50.944;6.932;2023-12-14T14:12:54;5.50;;;4.20;;
7340;SDS011;6870;50.944;6.932;2023-12-14T14:15:22;3.90;;;3.50;;
7340;SDS011;6870;50.944;6.932;2023-12-14T14:17:50;4.40;;;3.13;;
7340;SDS011;6870;50.944;6.932;2023-12-14T14:20:22;5.90;;;3.93;;
7340;SDS011;6870;50.944;6.932;2023-12-14T14:22:51;5.30;;;3.60;;
7340;SDS011;6870;50.944;6.932;2023-12-14T14:25:19;5.47;;;4.30;;
7340;SDS011;6870;50.944;6.932;2023-12-14T14:27:47;4.63;;;3.83;;
7340;SDS011;6870;50.944;6.932;2023-12-14T14:30:15;6.90;;;3.77;;
7340;SDS011;6870;50.944;6.932;2023-12-14T14:32:44;6.57;;;3.50;;
7340;SDS011;6870;50.944;6.932;2023-12-14T14:35:13;5.60;;;4.03;;
7340;SDS011;6870;50.944;6.932;2023-12-14T14:37:42;4.97;;;3.50;;
7340;SDS011;6870;50.944;6.932;2023-12-14T14:40:13;4.23;;;3.23;;
7340;SDS011;6870;50.944;6.932;2023-12-14T14:42:42;5.27;;;3.30;;
7340;SDS011;6870;50.944;6.932;2023-12-14T14:45:10;4.47;;;3.37;;
7340;SDS011;6870;50.944;6.932;2023-12-14T14:47:39;5.27;;;4.23;;
7340;SDS011;6870;50.944;6.932;2023-12-14T14:50:09;4.93;;;4.00;;
7340;SDS011;6870;50.944;6.932;2023-12-14T14:52:38;6.20;;;3.60;;
7340;SDS011;6870;50.944;6.932;2023-12-14T14:55:08;8.17;;;4.00;;
7340;SDS011;6870;50.944;6.932;2023-12-14T14:57:36;5.50;;;4.20;;
7340;SDS011;6870;50.944;6.932;2023-12-14T15:00:05;7.40;;;3.70;;
7340;SDS011;6870;50.944;6.932;2023-12-14T15:02:34;5.83;;;3.10;;
7340;SDS011;6870;50.944;6.932;2023-12-14T15:05:04;7.03;;;4.10;;
7340;SDS011;6870;50.944;6.932;2023-12-14T15:07:32;5.10;;;3.50;;
7340;SDS011;6870;50.944;6.932;2023-12-14T15:10:01;6.23;;;3.07;;
7340;SDS011;6870;50.944;6.932;2023-12-14T15:12:31;4.87;;;3.23;;
7340;SDS011;6870;50.944;6.932;2023-12-14T15:14:59;6.33;;;3.33;;
7340;SDS011;6870;50.944;6.932;2023-12-14T15:17:27;4.43;;;3.20;;
7340;SDS011;6870;50.944;6.932;2023-12-14T15:19:55;9.90;;;3.60;;
7340;SDS011;6870;50.944;6.932;2023-12-14T15:22:23;6.83;;;3.30;;
7340;SDS011;6870;50.944;6.932;2023-12-14T15:24:51;5.57;;;3.30;;